createdAt,value
2019-06-07T00:01:21.344Z,11.60
2019-06-07T00:02:57.951Z,12.00
2019-06-07T00:04:33.503Z,11.50
2019-06-07T00:06:14.546Z,11.03
2019-06-07T00:07:47.404Z,10.45
2019-06-07T00:09:23.745Z,10.13
2019-06-07T00:10:59.295Z,11.37
2019-06-07T00:12:35.648Z,10.90
2019-06-07T00:14:14.673Z,10.70
2019-06-07T00:15:49.259Z,10.35
2019-06-07T00:17:24.817Z,10.43
2019-06-07T00:19:01.207Z,9.17
2019-06-07T00:20:36.789Z,10.53
2019-06-07T00:22:18.306Z,9.93
2019-06-07T00:23:50.380Z,9.88
2019-06-07T00:25:26.720Z,10.58
2019-06-07T00:27:01.355Z,10.30
2019-06-07T00:28:37.462Z,10.23
2019-06-07T00:30:44.628Z,10.27
2019-06-07T00:31:53.271Z,11.25
2019-06-07T00:33:29.028Z,10.58
2019-06-07T00:35:09.126Z,9.73
2019-06-07T00:36:44.972Z,10.30
2019-06-07T00:38:21.935Z,9.38
2019-06-07T00:40:13.534Z,10.43
2019-06-07T00:41:35.768Z,9.70
2019-06-07T00:43:16.363Z,9.57
2019-06-07T00:44:49.373Z,10.60
2019-06-07T00:46:25.399Z,10.32
2019-06-07T00:48:00.733Z,9.73
2019-06-07T00:49:41.085Z,10.10
2019-06-07T00:51:14.030Z,9.63
2019-06-07T00:54:28.419Z,10.03
2019-06-07T00:56:04.043Z,9.63
2019-06-07T00:57:40.635Z,10.13
2019-06-07T00:59:19.149Z,11.07
2019-06-07T01:00:54.488Z,11.07
2019-06-07T01:02:31.662Z,11.48
2019-06-07T01:04:07.505Z,11.83
2019-06-07T01:05:43.799Z,11.47
2019-06-07T01:07:21.923Z,10.40
2019-06-07T01:08:58.612Z,9.43
2019-06-07T01:10:52.320Z,11.07
2019-06-07T01:12:14.125Z,10.03
2019-06-07T01:13:50.306Z,10.20
2019-06-07T01:15:29.268Z,10.40
2019-06-07T01:17:27.747Z,9.73
2019-06-07T01:18:52.857Z,9.10
2019-06-07T01:20:28.413Z,9.40
2019-06-07T01:22:05.148Z,9.40
2019-06-07T01:25:23.875Z,10.10
2019-06-07T01:26:58.081Z,10.30
2019-06-07T01:28:34.421Z,10.87
2019-06-07T01:30:12.258Z,9.77
2019-06-07T01:31:48.591Z,10.37
2019-06-07T01:33:39.650Z,10.83
2019-06-07T01:35:02.213Z,10.08
2019-06-07T01:36:37.771Z,10.03
2019-06-07T01:38:14.354Z,10.10
2019-06-07T01:39:50.246Z,10.23
2019-06-07T01:41:28.385Z,10.30
2019-06-07T01:43:03.840Z,12.03
2019-06-07T01:44:40.182Z,12.70
2019-06-07T01:46:15.852Z,10.47
2019-06-07T01:47:53.169Z,10.10
2019-06-07T01:49:29.739Z,8.98
2019-06-07T01:51:07.626Z,9.27
2019-06-07T01:52:43.261Z,10.13
2019-06-07T01:54:52.229Z,11.27
2019-06-07T01:55:57.188Z,10.40
2019-06-07T01:57:45.655Z,10.50
2019-06-07T01:59:11.097Z,10.07
2019-06-07T02:00:48.308Z,11.00
2019-06-07T02:02:28.068Z,10.27
2019-06-07T02:04:02.051Z,11.27
2019-06-07T02:05:38.345Z,11.30
2019-06-07T02:07:14.717Z,11.20
2019-06-07T02:08:50.257Z,10.95
2019-06-07T02:10:30.296Z,10.82
2019-06-07T02:12:23.065Z,10.03
2019-06-07T02:13:42.542Z,10.87
2019-06-07T02:15:21.694Z,11.13
2019-06-07T02:16:56.541Z,10.75
2019-06-07T02:18:34.373Z,11.13
2019-06-07T02:20:10.980Z,10.93
2019-06-07T02:21:47.041Z,11.53
2019-06-07T02:23:27.542Z,10.30
2019-06-07T02:26:38.744Z,11.17
2019-06-07T02:28:38.487Z,11.53
2019-06-07T02:29:52.351Z,11.22
2019-06-07T02:31:36.257Z,10.70
2019-06-07T02:33:06.073Z,11.35
2019-06-07T02:34:41.586Z,11.17
2019-06-07T02:36:18.336Z,10.50
2019-06-07T02:37:53.892Z,11.18
2019-06-07T02:39:34.494Z,12.03
2019-06-07T02:41:07.822Z,11.40
2019-06-07T02:42:44.416Z,11.83
2019-06-07T02:44:19.955Z,10.73
2019-06-07T02:45:56.295Z,12.67
2019-06-07T02:47:35.943Z,12.07
2019-06-07T02:49:09.905Z,11.70
2019-06-07T02:50:45.641Z,11.47
2019-06-07T02:52:27.356Z,11.77
2019-06-07T02:53:59.508Z,11.70
2019-06-07T02:56:26.364Z,10.97
2019-06-07T02:57:13.114Z,11.67
2019-06-07T02:58:49.447Z,11.07
2019-06-07T03:01:05.492Z,10.43
2019-06-07T03:02:26.547Z,11.85
2019-06-07T03:04:02.041Z,11.75
2019-06-07T03:05:45.336Z,11.17
2019-06-07T03:07:22.089Z,10.47
2019-06-07T03:08:58.794Z,11.93
2019-06-07T03:10:37.819Z,11.83
2019-06-07T03:12:14.822Z,11.53
2019-06-07T03:13:51.339Z,12.33
2019-06-07T03:15:44.644Z,11.60
2019-06-07T03:17:34.881Z,11.93
2019-06-07T03:19:10.412Z,11.10
2019-06-07T03:21:04.562Z,10.93
2019-06-07T03:22:26.817Z,10.93
2019-06-07T03:24:03.433Z,11.50
2019-06-07T03:25:40.524Z,11.77
2019-06-07T03:27:43.213Z,11.80
2019-06-07T03:28:56.858Z,12.90
2019-06-07T03:30:48.033Z,12.45
2019-06-07T03:32:10.763Z,11.90
2019-06-07T03:33:47.088Z,12.10
2019-06-07T03:35:22.635Z,12.28
2019-06-07T03:36:58.979Z,12.20
2019-06-07T03:38:35.352Z,12.20
2019-06-07T03:40:13.214Z,12.60
2019-06-07T03:42:05.098Z,12.50
2019-06-07T03:43:27.422Z,11.57
2019-06-07T03:45:03.517Z,12.75
2019-06-07T03:46:41.416Z,11.50
2019-06-07T03:48:17.117Z,11.63
2019-06-07T03:49:53.777Z,12.97
2019-06-07T03:51:30.616Z,12.70
2019-06-07T03:53:07.384Z,11.22
2019-06-07T03:54:43.024Z,11.63
2019-06-07T03:56:19.730Z,12.17
2019-06-07T03:59:37.416Z,12.68
2019-06-07T04:01:10.813Z,12.00
2019-06-07T04:02:47.435Z,11.73
2019-06-07T04:04:22.959Z,12.20
2019-06-07T04:05:59.301Z,11.90
2019-06-07T04:07:38.779Z,12.50
2019-06-07T04:09:12.997Z,12.47
2019-06-07T04:10:59.667Z,11.90
2019-06-07T04:12:28.561Z,11.97
2019-06-07T04:14:04.396Z,12.60
2019-06-07T04:15:41.470Z,11.93
2019-06-07T04:17:18.139Z,12.00
2019-06-07T04:18:54.490Z,12.60
2019-06-07T04:20:32.594Z,12.67
2019-06-07T04:22:08.084Z,12.23
2019-06-07T04:23:45.689Z,11.67
2019-06-07T04:25:21.952Z,12.77
2019-06-07T04:26:58.773Z,12.57
2019-06-07T04:29:25.573Z,12.18
2019-06-07T04:30:13.303Z,11.93
2019-06-07T04:31:49.640Z,12.53
2019-06-07T04:33:25.473Z,12.03
2019-06-07T04:35:01.811Z,11.90
2019-06-07T04:36:52.753Z,11.88
2019-06-07T04:38:16.518Z,11.73
2019-06-07T04:39:53.821Z,11.00
2019-06-07T04:41:33.437Z,11.50
2019-06-07T04:43:10.811Z,12.28
2019-06-07T04:44:49.692Z,12.60
2019-06-07T04:46:25.389Z,12.30
2019-06-07T04:48:04.131Z,12.30
2019-06-07T04:49:43.466Z,12.13
2019-06-07T04:51:19.238Z,12.33
2019-06-07T04:52:54.924Z,13.30
2019-06-07T04:54:32.946Z,12.13
2019-06-07T04:56:08.523Z,13.43
2019-06-07T04:57:45.011Z,12.23
2019-06-07T05:00:00.784Z,11.97
2019-06-07T05:01:03.739Z,12.27
2019-06-07T05:02:42.745Z,12.82
2019-06-07T05:04:17.120Z,12.70
2019-06-07T05:05:52.738Z,13.57
2019-06-07T05:07:30.971Z,13.47
2019-06-07T05:09:07.670Z,14.05
2019-06-07T05:10:44.223Z,13.77
2019-06-07T05:12:20.224Z,13.20
2019-06-07T05:13:59.336Z,12.80
2019-06-07T05:15:37.171Z,14.33
2019-06-07T05:17:12.962Z,13.80
2019-06-07T05:18:48.535Z,13.40
2019-06-07T05:20:24.875Z,13.85
2019-06-07T05:22:04.906Z,13.55
2019-06-07T05:25:17.227Z,14.25
2019-06-07T05:26:53.644Z,13.58
2019-06-07T05:28:29.977Z,13.80
2019-06-07T05:30:36.560Z,12.78
2019-06-07T05:31:49.596Z,12.55
2019-06-07T05:33:26.399Z,13.13
2019-06-07T05:35:02.824Z,13.20
2019-06-07T05:36:42.503Z,13.48
2019-06-07T05:38:16.914Z,12.70
2019-06-07T05:39:53.305Z,12.25
2019-06-07T05:41:29.808Z,11.50
2019-06-07T05:43:07.571Z,11.85
2019-06-07T05:44:45.453Z,11.78
2019-06-07T05:46:21.179Z,11.15
2019-06-07T05:47:56.734Z,11.65
2019-06-07T05:49:35.562Z,11.83
2019-06-07T05:51:10.733Z,11.67
2019-06-07T05:52:47.675Z,12.00
2019-06-07T05:54:23.720Z,11.95
2019-06-07T05:56:00.070Z,11.73
2019-06-07T05:57:37.651Z,12.13
2019-06-07T05:59:14.980Z,11.28
2019-06-07T06:00:51.066Z,10.83
2019-06-07T06:02:27.631Z,12.00
2019-06-07T06:04:03.992Z,11.05
2019-06-07T06:05:45.851Z,12.13
2019-06-07T06:07:17.599Z,11.80
2019-06-07T06:09:12.810Z,10.45
2019-06-07T06:10:34.224Z,12.05
2019-06-07T06:12:10.565Z,11.80
2019-06-07T06:14:06.120Z,12.47
2019-06-07T06:15:41.539Z,11.28
2019-06-07T06:17:01.609Z,11.03
2019-06-07T06:18:38.132Z,12.30
2019-06-07T06:20:14.271Z,12.20
2019-06-07T06:21:50.630Z,10.95
2019-06-07T06:23:26.204Z,11.25
2019-06-07T06:25:30.806Z,11.10
2019-06-07T06:26:47.664Z,11.30
2019-06-07T06:28:18.241Z,10.82
2019-06-07T06:29:53.793Z,12.23
2019-06-07T06:31:30.216Z,11.30
2019-06-07T06:33:06.808Z,10.80
2019-06-07T06:34:46.957Z,11.10
2019-06-07T06:36:21.421Z,10.48
2019-06-07T06:37:59.455Z,10.63
2019-06-07T06:39:35.595Z,10.93
2019-06-07T06:41:16.243Z,10.43
2019-06-07T06:42:50.630Z,9.85
2019-06-07T06:44:27.273Z,10.38
2019-06-07T06:46:02.857Z,10.28
2019-06-07T06:47:40.686Z,9.95
2019-06-07T06:49:16.386Z,9.78
2019-06-07T06:50:52.883Z,9.90
2019-06-07T06:52:29.473Z,9.20
2019-06-07T06:54:05.859Z,9.48
2019-06-07T06:55:41.700Z,8.70
2019-06-07T06:57:20.187Z,8.55
2019-06-07T07:00:56.953Z,7.85
2019-06-07T07:02:26.334Z,8.00
2019-06-07T07:04:11.991Z,7.45
2019-06-07T07:05:41.489Z,7.30
2019-06-07T07:07:18.505Z,8.70
2019-06-07T07:08:55.275Z,7.33
2019-06-07T07:10:46.153Z,7.12
2019-06-07T07:12:23.760Z,8.63
2019-06-07T07:13:59.662Z,7.78
2019-06-07T07:15:36.001Z,7.87
2019-06-07T07:17:12.553Z,7.68
2019-06-07T07:18:51.616Z,6.83
2019-06-07T07:20:26.420Z,6.70
2019-06-07T07:22:02.768Z,6.87
2019-06-07T07:23:38.310Z,6.92
2019-06-07T07:25:14.844Z,6.00
2019-06-07T07:26:53.879Z,5.83
2019-06-07T07:28:29.050Z,5.92
2019-06-07T07:31:50.306Z,5.15
2019-06-07T07:33:23.833Z,5.20
2019-06-07T07:35:00.851Z,5.55
2019-06-07T07:36:40.048Z,5.72
2019-06-07T07:38:16.516Z,6.00
2019-06-07T07:40:00.889Z,5.87
2019-06-07T07:41:30.122Z,5.70
2019-06-07T07:43:06.494Z,5.70
2019-06-07T07:44:43.256Z,5.95
2019-06-07T07:46:29.250Z,6.22
2019-06-07T07:48:13.770Z,5.83
2019-06-07T07:49:35.601Z,5.40
2019-06-07T07:51:11.974Z,5.45
2019-06-07T07:52:49.118Z,5.83
2019-06-07T07:54:25.708Z,6.40
2019-06-07T07:56:01.430Z,6.45
2019-06-07T07:57:37.873Z,7.05
2019-06-07T07:59:13.418Z,6.92
2019-06-07T08:00:54.884Z,6.70
2019-06-07T08:02:28.646Z,5.92
2019-06-07T08:04:05.021Z,5.60
2019-06-07T08:05:43.329Z,5.35
2019-06-07T08:07:18.888Z,5.47
2019-06-07T08:08:56.964Z,5.08
2019-06-07T08:10:32.882Z,5.40
2019-06-07T08:12:08.401Z,5.45
2019-06-07T08:13:45.686Z,6.05
2019-06-07T08:15:21.484Z,6.28
2019-06-07T08:16:59.270Z,6.73
2019-06-07T08:18:34.912Z,6.00
2019-06-07T08:20:11.825Z,6.92
2019-06-07T08:21:49.109Z,6.30
2019-06-07T08:23:26.741Z,6.35
2019-06-07T08:25:04.456Z,6.25
2019-06-07T08:26:41.849Z,6.78
2019-06-07T08:28:18.372Z,7.00
2019-06-07T08:30:18.488Z,6.50
2019-06-07T08:31:32.977Z,6.65
2019-06-07T08:33:25.512Z,5.92
2019-06-07T08:34:49.067Z,5.62
2019-06-07T08:36:40.787Z,6.42
2019-06-07T08:39:40.501Z,7.45
2019-06-07T08:41:16.440Z,10.68
2019-06-07T08:43:10.873Z,10.80
2019-06-07T08:44:30.462Z,7.92
2019-06-07T08:46:08.007Z,7.55
2019-06-07T08:47:44.979Z,6.60
2019-06-07T08:49:21.301Z,6.30
2019-06-07T08:51:06.561Z,5.50
2019-06-07T08:52:37.975Z,6.08
2019-06-07T08:54:22.533Z,5.67
2019-06-07T08:55:58.318Z,6.33
2019-06-07T08:57:28.867Z,6.42
2019-06-07T08:59:11.133Z,6.45
2019-06-07T09:00:46.527Z,6.60
2019-06-07T09:02:23.826Z,6.70
2019-06-07T09:04:05.778Z,7.70
2019-06-07T09:05:36.390Z,7.08
2019-06-07T09:07:19.580Z,9.75
2019-06-07T09:08:51.937Z,8.68
2019-06-07T09:10:30.064Z,8.38
2019-06-07T09:12:10.811Z,8.98
2019-06-07T09:13:43.975Z,8.75
2019-06-07T09:15:23.850Z,7.67
2019-06-07T09:17:02.576Z,7.72
2019-06-07T09:18:43.151Z,8.65
2019-06-07T09:20:35.889Z,7.53
2019-06-07T09:21:54.604Z,8.38
2019-06-07T09:23:31.359Z,8.73
2019-06-07T09:25:20.647Z,8.00
2019-06-07T09:26:48.740Z,7.70
2019-06-07T09:28:25.901Z,8.27
2019-06-07T09:30:07.651Z,8.20
2019-06-07T09:31:51.967Z,8.20
2019-06-07T09:33:16.873Z,8.60
2019-06-07T09:34:53.202Z,9.03
2019-06-07T09:36:28.758Z,10.13
2019-06-07T09:38:18.029Z,8.65
2019-06-07T09:39:43.177Z,8.78
2019-06-07T09:41:19.514Z,9.48
2019-06-07T09:43:48.187Z,10.25
2019-06-07T09:44:33.562Z,11.05
2019-06-07T09:46:12.822Z,9.98
2019-06-07T09:47:47.350Z,10.80
2019-06-07T09:49:31.886Z,10.00
2019-06-07T09:51:09.723Z,10.28
2019-06-07T09:52:57.223Z,9.60
2019-06-07T09:55:02.611Z,9.22
2019-06-07T09:55:54.666Z,9.53
2019-06-07T09:57:31.040Z,10.30
2019-06-07T09:59:11.760Z,10.78
2019-06-07T10:00:44.701Z,9.83
2019-06-07T10:02:20.314Z,9.60
2019-06-07T10:04:02.378Z,10.00
2019-06-07T10:05:34.248Z,11.40
2019-06-07T10:07:28.614Z,11.53
2019-06-07T10:12:04.570Z,9.90
2019-06-07T10:13:41.399Z,10.25
2019-06-07T10:15:17.903Z,10.28
2019-06-07T10:16:54.235Z,9.73
2019-06-07T10:18:29.805Z,10.18
2019-06-07T10:20:08.066Z,10.65
2019-06-07T10:21:43.625Z,11.68
2019-06-07T10:23:19.994Z,10.13
2019-06-07T10:24:55.717Z,9.26
2019-06-07T10:26:32.377Z,10.50
2019-06-07T10:28:08.442Z,9.60
2019-06-07T10:29:45.731Z,11.00
2019-06-07T10:31:21.312Z,10.88
2019-06-07T10:32:57.637Z,9.80
2019-06-07T10:34:33.240Z,10.28
2019-06-07T10:36:10.729Z,10.93
2019-06-07T10:37:46.435Z,9.60
2019-06-07T10:39:23.044Z,9.68
2019-06-07T10:40:58.608Z,10.60
2019-06-07T10:42:34.959Z,10.23
2019-06-07T10:44:11.451Z,9.98
2019-06-07T10:45:47.936Z,10.82
2019-06-07T10:47:23.496Z,10.88
2019-06-07T10:49:00.091Z,9.80
2019-06-07T10:50:35.681Z,11.12
2019-06-07T10:52:13.330Z,11.65
2019-06-07T10:53:48.981Z,10.93
2019-06-07T10:55:25.653Z,10.54
2019-06-07T10:57:02.841Z,10.65
2019-06-07T10:58:39.263Z,10.75
2019-06-07T11:00:17.529Z,11.12
2019-06-07T11:01:54.106Z,11.58
2019-06-07T11:03:29.677Z,11.43
2019-06-07T11:05:12.147Z,11.05
2019-06-07T11:06:46.341Z,10.15
2019-06-07T11:08:24.798Z,10.50
2019-06-07T11:10:07.548Z,11.70
2019-06-07T11:11:38.498Z,11.63
2019-06-07T11:13:14.494Z,10.55
2019-06-07T11:14:51.025Z,12.30
2019-06-07T11:16:26.597Z,11.70
2019-06-07T11:18:03.021Z,11.83
2019-06-07T11:19:38.665Z,10.50
2019-06-07T11:21:16.280Z,9.63
2019-06-07T11:22:52.079Z,9.98
2019-06-07T11:24:28.408Z,10.63
2019-06-07T11:26:03.982Z,11.03
2019-06-07T11:27:40.330Z,10.38
2019-06-07T11:29:15.984Z,10.13
2019-06-07T11:30:52.415Z,10.43
2019-06-07T11:32:28.121Z,10.40
2019-06-07T11:34:04.471Z,9.10
2019-06-07T11:35:40.018Z,10.60
2019-06-07T11:37:16.425Z,9.45
2019-06-07T11:38:53.048Z,9.08
2019-06-07T11:40:35.326Z,9.37
2019-06-07T11:42:07.934Z,10.17
2019-06-07T11:43:44.799Z,10.37
2019-06-07T11:45:23.753Z,9.98
2019-06-07T11:46:59.036Z,9.68
2019-06-07T11:48:34.612Z,9.30
2019-06-07T11:50:11.910Z,9.35
2019-06-07T11:51:47.480Z,10.08
2019-06-07T11:53:23.826Z,9.90
2019-06-07T11:54:59.718Z,8.82
2019-06-07T11:56:36.376Z,9.68
2019-06-07T11:58:16.452Z,8.78
2019-06-07T11:59:49.952Z,8.30
2019-06-07T12:01:25.526Z,9.63
2019-06-07T12:03:02.201Z,9.33
2019-06-07T12:04:38.036Z,8.80
2019-06-07T12:06:15.979Z,8.28
2019-06-07T12:07:56.984Z,7.92
2019-06-07T12:09:31.925Z,8.50
2019-06-07T12:11:08.076Z,8.55
2019-06-07T12:12:44.737Z,8.50
2019-06-07T12:14:20.285Z,8.45
2019-06-07T12:15:56.905Z,8.48
2019-06-07T12:17:32.444Z,8.83
2019-06-07T12:19:09.718Z,7.97
2019-06-07T12:20:45.402Z,8.35
2019-06-07T12:22:21.730Z,8.23
2019-06-07T12:23:57.450Z,8.13
2019-06-07T12:25:33.850Z,7.43
2019-06-07T12:27:10.321Z,7.40
2019-06-07T12:28:47.983Z,6.65
2019-06-07T12:30:28.077Z,7.10
2019-06-07T12:32:04.764Z,6.65
2019-06-07T12:33:40.290Z,6.50
2019-06-07T12:35:19.824Z,6.85
2019-06-07T12:36:55.586Z,6.50
2019-06-07T12:38:31.900Z,6.63
2019-06-07T12:40:09.939Z,6.55
2019-06-07T12:41:46.307Z,6.08
2019-06-07T12:43:23.211Z,6.28
2019-06-07T12:44:59.785Z,6.17
2019-06-07T12:46:35.668Z,6.97
2019-06-07T12:48:16.301Z,6.60
2019-06-07T12:49:49.580Z,8.25
2019-06-07T12:51:26.053Z,7.70
2019-06-07T12:53:01.854Z,6.43
2019-06-07T12:54:38.188Z,6.20
2019-06-07T12:56:13.770Z,5.75
2019-06-07T12:57:50.080Z,5.92
2019-06-07T12:59:26.704Z,6.37
2019-06-07T13:01:03.056Z,6.13
2019-06-07T13:02:38.691Z,5.58
2019-06-07T13:04:16.262Z,6.33
2019-06-07T13:05:52.001Z,5.80
2019-06-07T13:07:28.355Z,5.37
2019-06-07T13:09:04.510Z,5.62
2019-06-07T13:10:40.815Z,5.50
2019-06-07T13:12:17.543Z,4.92
2019-06-07T13:13:53.970Z,5.28
2019-06-07T13:15:29.525Z,5.55
2019-06-07T13:17:05.863Z,5.65
2019-06-07T13:18:41.586Z,5.12
2019-06-07T13:20:20.435Z,5.03
2019-06-07T13:21:56.061Z,4.28
2019-06-07T13:23:32.394Z,4.62
2019-06-07T13:25:09.366Z,4.30
2019-06-07T13:26:45.724Z,4.67
2019-06-07T13:28:22.661Z,4.22
2019-06-07T13:29:59.475Z,4.60
2019-06-07T13:31:35.012Z,4.47
2019-06-07T13:33:11.339Z,4.37
2019-06-07T13:34:46.890Z,4.45
2019-06-07T13:36:24.373Z,4.00
2019-06-07T13:38:00.467Z,4.00
2019-06-07T13:39:36.812Z,3.70
2019-06-07T13:41:12.378Z,3.80
2019-06-07T13:42:48.866Z,4.08
2019-06-07T13:44:25.383Z,3.83
2019-06-07T13:46:01.725Z,3.52
2019-06-07T13:47:37.353Z,3.85
2019-06-07T13:49:13.693Z,4.10
2019-06-07T13:50:49.235Z,3.87
2019-06-07T13:52:25.568Z,3.60
2019-06-07T13:54:02.461Z,4.00
2019-06-07T13:55:38.788Z,3.90
2019-06-07T13:57:14.338Z,3.47
2019-06-07T13:58:50.667Z,3.95
2019-06-07T14:00:26.779Z,4.00
2019-06-07T14:02:03.308Z,3.58
2019-06-07T14:03:38.847Z,4.03
2019-06-07T14:05:15.517Z,4.30
2019-06-07T14:06:51.054Z,4.00
2019-06-07T14:08:27.766Z,4.30
2019-06-07T14:10:06.689Z,4.12
2019-06-07T14:11:50.620Z,3.98
2019-06-07T14:13:21.463Z,3.80
2019-06-07T14:14:57.945Z,3.95
2019-06-07T14:16:33.498Z,4.08
2019-06-07T14:18:09.827Z,3.90
2019-06-07T14:19:45.432Z,3.95
2019-06-07T14:21:22.540Z,3.95
2019-06-07T14:22:59.503Z,4.20
2019-06-07T14:24:35.890Z,4.30
2019-06-07T14:26:11.448Z,4.22
2019-06-07T14:27:47.807Z,4.00
2019-06-07T14:29:23.632Z,4.10
2019-06-07T14:31:00.040Z,3.92
2019-06-07T14:32:35.638Z,4.20
2019-06-07T14:34:11.973Z,4.10
2019-06-07T14:35:47.510Z,4.03
2019-06-07T14:37:24.851Z,4.10
2019-06-07T14:39:01.894Z,4.54
2019-06-07T14:40:39.986Z,4.50
2019-06-07T14:42:15.523Z,4.12
2019-06-07T14:43:51.924Z,4.83
2019-06-07T14:45:27.749Z,4.33
2019-06-07T14:47:04.116Z,4.40
2019-06-07T14:48:39.666Z,4.30
2019-06-07T14:50:16.690Z,4.60
2019-06-07T14:51:52.565Z,4.60
2019-06-07T14:53:28.898Z,4.65
2019-06-07T14:55:06.142Z,4.30
2019-06-07T14:56:42.545Z,4.26
2019-06-07T14:58:18.070Z,4.70
2019-06-07T14:59:57.314Z,4.53
2019-06-07T15:01:33.506Z,4.53
2019-06-07T15:03:11.755Z,4.35
2019-06-07T15:04:48.114Z,4.45
2019-06-07T15:06:24.518Z,5.35
2019-06-07T15:08:00.064Z,4.67
2019-06-07T15:09:36.718Z,4.65
2019-06-07T15:11:12.289Z,4.72
2019-06-07T15:12:48.628Z,4.93
2019-06-07T15:14:24.452Z,5.22
2019-06-07T15:16:00.761Z,4.70
2019-06-07T15:17:36.341Z,4.80
2019-06-07T15:19:12.913Z,5.05
2019-06-07T15:20:48.471Z,5.05
2019-06-07T15:22:25.028Z,5.25
2019-06-07T15:24:00.636Z,5.30
2019-06-07T15:25:36.917Z,4.97
2019-06-07T15:27:12.461Z,5.15
2019-06-07T15:28:48.820Z,4.60
2019-06-07T15:30:25.381Z,4.70
2019-06-07T15:32:01.708Z,5.10
2019-06-07T15:33:38.544Z,4.50
2019-06-07T15:35:16.081Z,5.20
2019-06-07T15:36:51.705Z,5.03
2019-06-07T15:38:28.876Z,5.22
2019-06-07T15:40:05.975Z,4.87
2019-06-07T15:41:42.383Z,4.75
2019-06-07T15:43:19.547Z,5.40
2019-06-07T15:44:56.148Z,5.05
2019-06-07T15:46:33.601Z,5.03
2019-06-07T15:48:11.113Z,5.38
2019-06-07T15:49:46.644Z,5.08
2019-06-07T15:51:22.961Z,5.20
2019-06-07T15:52:58.499Z,5.28
2019-06-07T15:54:34.873Z,5.30
2019-06-07T15:56:10.544Z,5.72
2019-06-07T15:57:46.876Z,5.20
2019-06-07T15:59:22.420Z,5.03
2019-06-07T16:00:58.771Z,5.58
2019-06-07T16:02:35.669Z,5.40
2019-06-07T16:04:12.028Z,5.22
2019-06-07T16:05:47.561Z,5.00
2019-06-07T16:07:24.145Z,5.08
2019-06-07T16:08:59.938Z,5.12
2019-06-07T16:10:36.834Z,5.15
2019-06-07T16:12:12.631Z,5.20
2019-06-07T16:13:48.947Z,5.30
2019-06-07T16:15:24.660Z,5.50
2019-06-07T16:17:00.956Z,5.40
2019-06-07T16:18:37.642Z,5.20
2019-06-07T16:20:14.353Z,5.83
2019-06-07T16:21:50.152Z,5.94
2019-06-07T16:23:26.476Z,5.80
2019-06-07T16:25:02.154Z,5.80
2019-06-07T16:26:38.583Z,6.05
2019-06-07T16:28:14.112Z,6.08
2019-06-07T16:29:50.440Z,6.08
2019-06-07T16:31:26.000Z,5.92
2019-06-07T16:33:02.599Z,6.30
2019-06-07T16:34:39.889Z,5.80
2019-06-07T16:36:16.636Z,5.83
2019-06-07T16:37:52.668Z,6.50
2019-06-07T16:39:29.190Z,6.78
2019-06-07T16:41:05.275Z,6.50
2019-06-07T16:42:42.905Z,6.80
2019-06-07T16:44:18.717Z,6.05
2019-06-07T16:45:55.042Z,6.35
2019-06-07T16:47:30.593Z,6.28
2019-06-07T16:49:07.026Z,5.78
2019-06-07T16:50:42.993Z,6.08
2019-06-07T16:52:19.465Z,6.12
2019-06-07T16:53:55.005Z,5.92
2019-06-07T16:55:31.349Z,6.20
2019-06-07T16:57:06.934Z,5.97
2019-06-07T16:58:44.400Z,6.00
2019-06-07T17:00:20.772Z,6.30
2019-06-07T17:01:57.110Z,6.67
2019-06-07T17:03:33.752Z,6.28
2019-06-07T17:05:11.290Z,6.35
2019-06-07T17:06:48.188Z,6.42
2019-06-07T17:08:24.767Z,5.70
2019-06-07T17:10:00.615Z,6.03
2019-06-07T17:11:38.224Z,6.53
2019-06-07T17:13:13.753Z,6.03
2019-06-07T17:14:50.102Z,6.53
2019-06-07T17:16:25.626Z,6.64
2019-06-07T17:18:02.048Z,6.70
2019-06-07T17:19:38.987Z,6.55
2019-06-07T17:21:20.052Z,6.65
2019-06-07T17:22:56.376Z,6.88
2019-06-07T17:24:31.919Z,6.85
2019-06-07T17:26:08.330Z,7.55
2019-06-07T17:27:44.029Z,7.28
2019-06-07T17:29:20.363Z,7.03
2019-06-07T17:30:57.927Z,6.83
2019-06-07T17:32:47.653Z,7.10
2019-06-07T17:34:11.759Z,7.37
2019-06-07T17:35:48.545Z,7.30
2019-06-07T17:37:24.475Z,7.22
2019-06-07T17:39:00.822Z,7.62
2019-06-07T17:40:38.141Z,7.60
2019-06-07T17:42:14.806Z,7.70
2019-06-07T17:43:58.535Z,7.75
2019-06-07T17:45:29.640Z,7.95
2019-06-07T17:47:05.161Z,7.97
2019-06-07T17:48:43.508Z,7.58
2019-06-07T17:50:20.636Z,7.62
2019-06-07T17:51:57.016Z,7.82
2019-06-07T17:53:32.602Z,8.20
2019-06-07T17:55:13.268Z,8.10
2019-06-07T17:56:50.512Z,7.95
2019-06-07T17:58:27.897Z,7.38
2019-06-07T18:00:27.617Z,7.67
2019-06-07T18:02:02.365Z,8.03
2019-06-07T18:03:22.812Z,8.08
2019-06-07T18:04:58.362Z,7.80
2019-06-07T18:06:41.086Z,7.65
2019-06-07T18:08:17.523Z,7.47
2019-06-07T18:09:56.146Z,7.75
2019-06-07T18:11:32.191Z,7.78
2019-06-07T18:13:09.551Z,7.50
2019-06-07T18:14:45.787Z,7.62
2019-06-07T18:16:22.809Z,7.95
2019-06-07T18:17:58.353Z,7.40
2019-06-07T18:19:35.980Z,8.00
2019-06-07T18:21:11.575Z,7.75
2019-06-07T18:22:49.030Z,7.20
2019-06-07T18:24:24.594Z,7.17
2019-06-07T18:26:00.982Z,8.13
2019-06-07T18:27:36.526Z,8.00
2019-06-07T18:29:12.850Z,7.72
2019-06-07T18:30:48.630Z,7.42
2019-06-07T18:32:25.095Z,7.83
2019-06-07T18:34:00.929Z,7.35
2019-06-07T18:35:37.435Z,7.75
2019-06-07T18:37:12.982Z,7.90
2019-06-07T18:38:49.311Z,7.28
2019-06-07T18:40:24.823Z,7.58
2019-06-07T18:42:01.147Z,8.17
2019-06-07T18:43:36.687Z,8.05
2019-06-07T18:45:13.514Z,7.80
2019-06-07T18:46:50.127Z,7.70
2019-06-07T18:48:26.451Z,8.23
2019-06-07T18:50:02.269Z,7.17
2019-06-07T18:51:38.951Z,7.50
2019-06-07T18:53:14.577Z,8.13
2019-06-07T18:54:53.147Z,8.48
2019-06-07T18:56:28.669Z,8.13
2019-06-07T18:58:05.301Z,7.90
2019-06-07T18:59:40.922Z,7.83
2019-06-07T19:01:17.250Z,7.92
2019-06-07T19:02:53.972Z,8.05
2019-06-07T19:04:30.431Z,8.08
2019-06-07T19:06:05.982Z,8.10
2019-06-07T19:07:42.307Z,7.70
2019-06-07T19:09:17.874Z,7.70
2019-06-07T19:10:54.820Z,8.58
2019-06-07T19:12:30.804Z,8.20
2019-06-07T19:14:07.133Z,7.87
2019-06-07T19:15:43.493Z,7.92
2019-06-07T19:17:19.907Z,8.10
2019-06-07T19:18:55.923Z,8.55
2019-06-07T19:20:32.297Z,8.20
2019-06-07T19:22:07.934Z,8.90
2019-06-07T19:23:44.262Z,8.75
2019-06-07T19:25:20.913Z,8.50
2019-06-07T19:26:58.639Z,7.90
2019-06-07T19:28:34.277Z,7.95
2019-06-07T19:30:12.663Z,8.05
2019-06-07T19:31:48.591Z,8.03
2019-06-07T19:33:24.892Z,8.40
2019-06-07T19:35:01.539Z,8.28
2019-06-07T19:36:48.277Z,7.55
2019-06-07T19:38:17.067Z,7.97
2019-06-07T19:39:53.845Z,7.86
2019-06-07T19:41:29.353Z,8.27
2019-06-07T19:43:05.871Z,8.38
2019-06-07T19:44:53.085Z,8.30
2019-06-07T19:46:21.446Z,8.13
2019-06-07T19:47:57.132Z,8.50
2019-06-07T19:49:34.722Z,8.07
2019-06-07T19:51:10.264Z,8.30
2019-06-07T19:52:46.599Z,8.00
2019-06-07T19:54:23.130Z,8.02
2019-06-07T19:55:59.455Z,8.00
2019-06-07T19:57:43.278Z,7.43
2019-06-07T19:59:19.599Z,8.25
2019-06-07T20:00:55.543Z,8.55
2019-06-07T20:02:31.974Z,8.28
2019-06-07T20:04:07.541Z,8.10
2019-06-07T20:05:43.879Z,7.58
2019-06-07T20:07:19.401Z,8.18
2019-06-07T20:08:56.518Z,8.60
2019-06-07T20:10:32.296Z,8.38
2019-06-07T20:12:08.619Z,8.70
2019-06-07T20:13:44.181Z,8.23
2019-06-07T20:15:29.142Z,8.30
2019-06-07T20:16:59.524Z,8.73
2019-06-07T20:18:35.947Z,8.38
2019-06-07T20:20:12.213Z,8.33
2019-06-07T20:21:48.553Z,8.38
2019-06-07T20:23:24.392Z,7.72
2019-06-07T20:25:00.870Z,8.05
2019-06-07T20:26:39.426Z,8.30
2019-06-07T20:28:15.771Z,8.63
2019-06-07T20:29:51.309Z,8.98
2019-06-07T20:31:28.536Z,8.20
2019-06-07T20:33:04.115Z,8.83
2019-06-07T20:34:44.477Z,8.73
2019-06-07T20:36:17.643Z,8.33
2019-06-07T20:37:54.740Z,7.83
2019-06-07T20:39:30.295Z,8.10
2019-06-07T20:41:07.467Z,8.47
2019-06-07T20:42:43.078Z,8.13
2019-06-07T20:44:19.411Z,7.65
2019-06-07T20:45:54.942Z,8.15
2019-06-07T20:47:31.278Z,8.23
2019-06-07T20:49:06.809Z,8.40
2019-06-07T20:50:43.133Z,7.97
2019-06-07T20:52:18.693Z,8.68
2019-06-07T20:53:55.038Z,8.43
2019-06-07T20:55:30.836Z,8.28
2019-06-07T20:57:07.155Z,8.85
2019-06-07T20:58:42.713Z,9.15
2019-06-07T21:00:21.927Z,8.60
2019-06-07T21:01:58.717Z,8.95
2019-06-07T21:03:36.035Z,8.68
2019-06-07T21:05:12.145Z,8.60
2019-06-07T21:06:48.479Z,9.13
2019-06-07T21:08:24.994Z,9.00
2019-06-07T21:10:01.800Z,9.08
2019-06-07T21:11:38.436Z,8.85
2019-06-07T21:13:14.719Z,8.68
2019-06-07T21:14:53.386Z,9.48
2019-06-07T21:16:29.726Z,9.10
2019-06-07T21:18:16.280Z,9.28
2019-06-07T21:19:43.340Z,9.30
2019-06-07T21:21:18.856Z,8.98
2019-06-07T21:22:55.200Z,9.05
2019-06-07T21:24:30.847Z,8.70
2019-06-07T21:26:07.357Z,9.55
2019-06-07T21:27:42.907Z,9.80
2019-06-07T21:29:19.245Z,8.85
2019-06-07T21:30:54.785Z,9.65